createdAt,value
2022-11-29T00:01:39.433Z,3.10
2022-11-29T00:04:07.294Z,3.11
2022-11-29T00:06:35.613Z,3.06
2022-11-29T00:09:07.519Z,3.06
2022-11-29T00:11:56.099Z,3.08
2022-11-29T00:14:24.981Z,3.04
2022-11-29T00:16:55.301Z,3.05
2022-11-29T00:19:23.001Z,3.05
2022-11-29T00:21:50.578Z,3.04
2022-11-29T00:24:18.616Z,3.04
2022-11-29T00:26:46.592Z,3.08
2022-11-29T00:29:14.417Z,3.06
2022-11-29T00:31:42.433Z,3.04
2022-11-29T00:34:11.635Z,3.06
2022-11-29T00:36:39.257Z,3.03
2022-11-29T00:39:07.444Z,3.06
2022-11-29T00:41:35.389Z,3.13
2022-11-29T00:44:02.934Z,3.12
2022-11-29T00:46:30.402Z,3.14
2022-11-29T00:48:57.833Z,3.09
2022-11-29T00:51:25.389Z,3.04
2022-11-29T00:53:52.868Z,3.05
2022-11-29T00:56:20.358Z,2.98
2022-11-29T00:58:49.336Z,3.02
2022-11-29T01:01:17.134Z,3.10
2022-11-29T01:03:44.689Z,3.11
2022-11-29T01:06:14.336Z,3.08
2022-11-29T01:08:42.238Z,3.13
2022-11-29T01:11:18.783Z,3.16
2022-11-29T01:13:47.277Z,3.13
2022-11-29T01:16:15.954Z,3.17
2022-11-29T01:18:44.043Z,3.16
2022-11-29T01:21:14.874Z,3.12
2022-11-29T01:23:43.302Z,3.13
2022-11-29T01:26:14.198Z,3.15
2022-11-29T01:28:42.429Z,3.22
2022-11-29T01:31:16.045Z,3.19
2022-11-29T01:33:43.543Z,3.22
2022-11-29T01:36:13.342Z,3.31
2022-11-29T01:38:42.605Z,3.34
2022-11-29T01:41:19.216Z,3.33
2022-11-29T01:44:25.939Z,3.31
2022-11-29T01:46:54.589Z,3.28
2022-11-29T01:49:27.326Z,3.24
2022-11-29T01:52:14.784Z,3.29
2022-11-29T01:54:45.558Z,3.28
2022-11-29T01:57:13.640Z,3.34
2022-11-29T01:59:54.786Z,3.37
2022-11-29T02:02:32.732Z,3.29
2022-11-29T02:05:01.258Z,3.30
2022-11-29T02:07:29.041Z,3.28
2022-11-29T02:09:56.555Z,3.25
2022-11-29T02:13:11.728Z,3.20
2022-11-29T02:15:57.368Z,3.16
2022-11-29T02:18:50.157Z,3.16
2022-11-29T02:21:20.395Z,3.17
2022-11-29T02:24:15.428Z,3.12
2022-11-29T02:26:49.085Z,3.11
2022-11-29T02:29:46.034Z,3.06
2022-11-29T02:32:31.784Z,3.09
2022-11-29T02:35:17.818Z,3.04
2022-11-29T02:37:54.839Z,3.00
2022-11-29T02:41:01.183Z,2.95
2022-11-29T02:43:53.306Z,2.96
2022-11-29T02:46:26.518Z,2.96
2022-11-29T02:49:24.638Z,2.92
2022-11-29T02:52:39.618Z,2.91
2022-11-29T02:55:13.804Z,2.89
2022-11-29T02:57:50.625Z,2.91
2022-11-29T03:00:23.211Z,2.92
2022-11-29T03:02:53.671Z,2.97
2022-11-29T03:05:30.314Z,2.97
2022-11-29T03:08:18.501Z,2.95
2022-11-29T03:10:58.246Z,2.88
2022-11-29T03:13:54.594Z,2.87
2022-11-29T03:16:43.568Z,2.82
2022-11-29T03:19:48.188Z,2.83
2022-11-29T03:23:07.877Z,2.84
2022-11-29T03:25:59.428Z,2.87
2022-11-29T03:28:38.258Z,2.78
2022-11-29T03:31:16.328Z,2.79
2022-11-29T03:34:20.724Z,2.81
2022-11-29T03:37:10.003Z,2.76
2022-11-29T03:39:41.894Z,2.77
2022-11-29T03:42:17.771Z,2.78
2022-11-29T03:45:08.721Z,2.76
2022-11-29T03:47:42.827Z,2.75
2022-11-29T03:50:20.526Z,2.80
2022-11-29T03:52:53.553Z,2.82
2022-11-29T03:55:47.158Z,2.80
2022-11-29T03:58:36.068Z,2.83
2022-11-29T04:01:30.880Z,2.78
2022-11-29T04:04:34.344Z,2.78
2022-11-29T04:07:42.979Z,2.76
2022-11-29T04:10:41.003Z,2.77
2022-11-29T04:13:42.657Z,2.78
2022-11-29T04:16:28.891Z,2.80
2022-11-29T04:18:56.317Z,2.83
2022-11-29T04:22:11.238Z,2.86
2022-11-29T04:24:57.073Z,2.82
2022-11-29T04:27:27.044Z,2.87
2022-11-29T04:30:27.713Z,2.88
2022-11-29T04:33:37.447Z,2.90
2022-11-29T04:36:35.706Z,2.81
2022-11-29T04:39:24.333Z,2.87
2022-11-29T04:42:03.288Z,2.84
2022-11-29T04:44:49.504Z,2.87
2022-11-29T04:47:29.014Z,2.80
2022-11-29T04:50:13.036Z,2.78
2022-11-29T04:52:56.608Z,2.79
2022-11-29T04:55:44.608Z,2.84
2022-11-29T04:58:36.004Z,2.85
2022-11-29T05:01:27.604Z,2.82
2022-11-29T05:11:44.786Z,2.74
2022-11-29T05:14:41.093Z,2.75
2022-11-29T05:17:30.722Z,2.71
2022-11-29T05:20:27.427Z,2.70
2022-11-29T05:23:24.182Z,2.71
2022-11-29T05:26:25.016Z,2.74
2022-11-29T05:29:03.216Z,2.69
2022-11-29T05:32:21.811Z,2.72
2022-11-29T05:34:52.103Z,2.68
2022-11-29T05:37:31.115Z,2.68
2022-11-29T05:40:13.456Z,2.68
2022-11-29T05:43:06.096Z,2.65
2022-11-29T05:46:08.433Z,2.60
2022-11-29T05:48:46.578Z,2.60
2022-11-29T05:51:53.034Z,2.62
2022-11-29T05:54:44.594Z,2.68
2022-11-29T05:57:57.204Z,2.58
2022-11-29T06:00:29.807Z,2.58
2022-11-29T06:03:06.527Z,2.58
2022-11-29T06:05:47.692Z,2.58
2022-11-29T06:08:33.686Z,2.57
2022-11-29T06:11:05.889Z,2.47
2022-11-29T06:13:55.500Z,2.57
2022-11-29T06:16:31.830Z,2.51
2022-11-29T06:19:19.358Z,2.59
2022-11-29T06:22:09.335Z,2.59
2022-11-29T06:25:05.077Z,2.57
2022-11-29T06:27:50.555Z,2.60
2022-11-29T06:30:26.757Z,2.54
2022-11-29T06:33:14.193Z,2.53
2022-11-29T06:35:52.226Z,2.53
2022-11-29T06:38:27.362Z,2.55
2022-11-29T06:41:01.555Z,2.49
2022-11-29T06:43:31.009Z,2.46
2022-11-29T06:46:14.896Z,2.50
2022-11-29T06:48:46.570Z,2.51
2022-11-29T06:51:29.028Z,2.49
2022-11-29T06:54:06.216Z,2.51
2022-11-29T06:56:41.956Z,2.53
2022-11-29T06:59:21.587Z,2.50
2022-11-29T07:02:04.829Z,2.50
2022-11-29T07:04:55.436Z,2.51
2022-11-29T07:07:24.107Z,2.46
2022-11-29T07:09:57.082Z,2.54
2022-11-29T07:12:24.847Z,2.52
2022-11-29T07:14:52.686Z,2.58
2022-11-29T07:17:29.224Z,2.57
2022-11-29T07:20:02.835Z,2.54
2022-11-29T07:22:42.623Z,2.50
2022-11-29T07:25:24.742Z,2.52
2022-11-29T07:28:01.615Z,2.52
2022-11-29T07:30:53.632Z,2.44
2022-11-29T07:33:53.426Z,2.45
2022-11-29T07:36:38.483Z,2.59
2022-11-29T07:39:38.303Z,2.58
2022-11-29T07:42:41.528Z,2.57
2022-11-29T07:45:26.543Z,2.62
2022-11-29T07:47:54.515Z,2.67
2022-11-29T07:50:22.365Z,2.64
2022-11-29T07:52:50.184Z,2.70
2022-11-29T07:55:21.203Z,2.68
2022-11-29T07:57:49.733Z,2.70
2022-11-29T08:00:18.565Z,2.75
2022-11-29T08:02:47.492Z,2.78
2022-11-29T08:05:15.104Z,2.86
2022-11-29T08:07:43.082Z,2.83
2022-11-29T08:10:13.815Z,2.81
2022-11-29T08:12:47.459Z,2.82
2022-11-29T08:15:15.235Z,2.82
2022-11-29T08:17:42.985Z,2.80
2022-11-29T08:20:12.819Z,3.09
2022-11-29T08:22:40.448Z,3.13
2022-11-29T08:25:09.095Z,3.12
2022-11-29T08:27:37.673Z,3.14
2022-11-29T08:30:06.756Z,3.10
2022-11-29T08:32:34.878Z,3.09
2022-11-29T08:35:02.433Z,3.08
2022-11-29T08:37:30.172Z,3.13
2022-11-29T08:39:59.042Z,3.22
2022-11-29T08:42:26.539Z,3.18
2022-11-29T08:44:54.037Z,3.16
2022-11-29T08:47:36.499Z,3.17
2022-11-29T08:50:07.335Z,3.21
2022-11-29T08:52:56.046Z,3.16
2022-11-29T08:55:26.477Z,3.24
2022-11-29T08:58:00.118Z,3.19
2022-11-29T09:00:27.657Z,3.19
2022-11-29T09:02:55.123Z,3.26
2022-11-29T09:05:22.717Z,3.22
2022-11-29T09:07:50.250Z,3.41
2022-11-29T09:10:17.825Z,3.33
2022-11-29T09:12:45.813Z,3.42
2022-11-29T09:15:13.383Z,3.45
2022-11-29T09:17:40.896Z,3.48
2022-11-29T09:20:09.015Z,3.49
2022-11-29T09:22:36.510Z,3.54
2022-11-29T09:25:04.497Z,3.46
2022-11-29T09:27:32.107Z,3.47
2022-11-29T09:29:59.671Z,3.56
2022-11-29T09:32:27.181Z,3.43
2022-11-29T09:34:54.629Z,3.50
2022-11-29T09:37:22.127Z,3.55
2022-11-29T09:39:49.575Z,3.54
2022-11-29T09:42:35.618Z,3.58
2022-11-29T09:45:09.725Z,3.48
2022-11-29T09:47:52.199Z,3.56
2022-11-29T09:50:25.507Z,3.60
2022-11-29T09:53:04.911Z,3.49
2022-11-29T09:55:50.804Z,3.59
2022-11-29T09:58:21.762Z,3.63
2022-11-29T10:00:52.544Z,3.64
2022-11-29T10:03:29.545Z,3.67
2022-11-29T10:06:27.046Z,3.74
2022-11-29T10:09:04.528Z,3.66
2022-11-29T10:11:49.761Z,3.80
2022-11-29T10:14:22.924Z,3.79
2022-11-29T10:17:01.309Z,3.95
2022-11-29T10:19:36.945Z,4.00
2022-11-29T10:22:14.361Z,3.98
2022-11-29T10:24:47.112Z,4.11
2022-11-29T10:27:19.804Z,4.16
2022-11-29T10:29:50.587Z,4.26
2022-11-29T10:32:21.395Z,4.28
2022-11-29T10:34:49.937Z,4.23
2022-11-29T10:37:22.137Z,4.34
2022-11-29T10:40:13.236Z,4.25
2022-11-29T10:42:50.037Z,4.11
2022-11-29T10:45:20.598Z,4.16
2022-11-29T10:47:50.396Z,4.32
2022-11-29T10:50:22.153Z,4.39
2022-11-29T10:52:49.677Z,4.41
2022-11-29T10:55:18.427Z,4.49
2022-11-29T10:58:08.703Z,4.41
2022-11-29T11:01:07.078Z,4.24
2022-11-29T11:03:41.457Z,4.42
2022-11-29T11:06:18.917Z,4.41
2022-11-29T11:08:49.975Z,4.26
2022-11-29T11:11:38.911Z,4.37
2022-11-29T11:14:27.872Z,4.36
2022-11-29T11:16:55.888Z,4.33
2022-11-29T11:19:34.563Z,4.30
2022-11-29T11:22:03.436Z,4.37
2022-11-29T11:24:40.186Z,4.44
2022-11-29T11:27:08.147Z,4.51
2022-11-29T11:29:42.456Z,4.39
2022-11-29T11:32:20.326Z,4.41
2022-11-29T11:35:02.282Z,4.51
2022-11-29T11:37:33.796Z,4.56
2022-11-29T11:40:20.906Z,4.66
2022-11-29T11:42:48.567Z,4.78
2022-11-29T11:45:15.976Z,4.83
2022-11-29T11:47:53.074Z,4.98
2022-11-29T11:50:28.323Z,5.07
2022-11-29T11:53:05.106Z,5.15
2022-11-29T11:55:43.290Z,5.17
2022-11-29T11:58:13.787Z,5.32
2022-11-29T12:01:04.973Z,5.39
2022-11-29T12:03:58.418Z,5.33
2022-11-29T12:07:04.327Z,5.36
2022-11-29T12:09:43.707Z,5.10
2022-11-29T12:12:24.678Z,4.97
2022-11-29T12:14:56.890Z,5.00
2022-11-29T12:18:01.927Z,5.16
2022-11-29T12:20:45.435Z,4.87
2022-11-29T12:23:12.847Z,4.74
2022-11-29T12:26:05.836Z,4.64
2022-11-29T12:28:38.593Z,4.58
2022-11-29T12:31:18.085Z,4.54
2022-11-29T12:34:22.862Z,4.45
2022-11-29T12:37:24.426Z,4.50
2022-11-29T12:40:06.561Z,4.48
2022-11-29T12:42:45.274Z,4.48
2022-11-29T12:45:33.917Z,4.44
2022-11-29T12:48:29.067Z,4.40
2022-11-29T12:51:25.867Z,4.41
2022-11-29T12:54:24.843Z,4.33
2022-11-29T12:57:04.826Z,4.46
2022-11-29T12:59:42.186Z,4.33
2022-11-29T13:02:34.877Z,4.41
2022-11-29T13:05:14.724Z,4.28
2022-11-29T13:08:07.538Z,4.32
2022-11-29T13:11:04.400Z,4.27
2022-11-29T13:13:50.086Z,4.29
2022-11-29T13:16:31.403Z,4.30
2022-11-29T13:19:08.286Z,4.07
2022-11-29T13:22:02.127Z,4.07
2022-11-29T13:24:42.575Z,4.32
2022-11-29T13:27:18.870Z,4.27
2022-11-29T13:29:47.355Z,4.30
2022-11-29T13:32:28.582Z,4.19
2022-11-29T13:35:03.465Z,4.27
2022-11-29T13:37:42.959Z,4.37
2022-11-29T13:40:19.501Z,4.44
2022-11-29T13:42:56.880Z,4.34
2022-11-29T13:45:39.381Z,4.26
2022-11-29T13:48:37.216Z,4.17
2022-11-29T13:51:41.498Z,4.25
2022-11-29T13:54:31.101Z,4.03
2022-11-29T13:57:05.275Z,3.88
2022-11-29T13:59:36.339Z,4.05
2022-11-29T14:02:15.708Z,3.96
2022-11-29T14:04:46.405Z,4.00
2022-11-29T14:07:19.824Z,3.85
2022-11-29T14:10:05.806Z,3.76
2022-11-29T14:12:56.149Z,3.76
2022-11-29T14:15:28.484Z,3.68
2022-11-29T14:18:26.628Z,3.58
2022-11-29T14:20:55.769Z,3.50
2022-11-29T14:23:44.544Z,3.50
2022-11-29T14:26:28.290Z,3.61
2022-11-29T14:28:56.426Z,3.52
2022-11-29T14:31:48.710Z,3.47
2022-11-29T14:34:26.661Z,3.42
2022-11-29T14:37:02.693Z,3.38
2022-11-29T14:39:52.791Z,3.40
2022-11-29T14:42:23.683Z,3.39
2022-11-29T14:44:58.477Z,3.30
2022-11-29T14:47:33.079Z,3.26
2022-11-29T14:50:06.731Z,3.20
2022-11-29T14:52:39.621Z,3.22
2022-11-29T14:55:07.452Z,3.13
2022-11-29T14:57:54.610Z,3.07
2022-11-29T15:00:24.939Z,3.04
2022-11-29T15:03:01.508Z,3.03
2022-11-29T15:05:59.579Z,3.03
2022-11-29T15:08:27.047Z,2.94
2022-11-29T15:11:02.136Z,2.87
2022-11-29T15:13:33.055Z,2.87
2022-11-29T15:16:21.843Z,2.86
2022-11-29T15:19:16.729Z,2.80
2022-11-29T15:21:50.369Z,2.85
2022-11-29T15:24:18.656Z,2.82
2022-11-29T15:27:03.580Z,2.84
2022-11-29T15:29:31.825Z,2.83
2022-11-29T15:32:04.309Z,2.77
2022-11-29T15:34:38.234Z,2.79
2022-11-29T15:37:06.053Z,2.79
2022-11-29T15:39:37.601Z,2.74
2022-11-29T15:42:11.899Z,2.74
2022-11-29T15:44:49.253Z,2.72
2022-11-29T15:47:25.362Z,2.70
2022-11-29T15:49:54.157Z,2.72
2022-11-29T15:52:27.427Z,2.73
2022-11-29T15:55:01.334Z,2.73
2022-11-29T15:57:37.098Z,2.74
2022-11-29T16:00:15.927Z,2.69
2022-11-29T16:02:53.707Z,2.67
2022-11-29T16:05:37.040Z,2.60
2022-11-29T16:08:08.398Z,2.64
2022-11-29T16:10:43.682Z,2.64
2022-11-29T16:13:39.816Z,2.62
2022-11-29T16:16:19.576Z,2.59
2022-11-29T16:18:48.959Z,2.56
2022-11-29T16:21:24.664Z,2.55
2022-11-29T16:23:52.933Z,2.56
2022-11-29T16:26:24.727Z,2.52
2022-11-29T16:28:54.445Z,2.50
2022-11-29T16:31:30.538Z,2.52
2022-11-29T16:34:05.921Z,2.54
2022-11-29T16:36:33.523Z,2.52
2022-11-29T16:39:07.080Z,2.52
2022-11-29T16:41:38.963Z,2.52
2022-11-29T16:44:36.165Z,2.55
2022-11-29T16:47:25.620Z,2.55
2022-11-29T16:50:02.096Z,2.48
2022-11-29T16:52:32.327Z,2.46
2022-11-29T16:55:00.662Z,2.53
2022-11-29T16:57:29.450Z,2.53
2022-11-29T16:59:57.185Z,2.52
2022-11-29T17:02:24.663Z,2.52
2022-11-29T17:04:52.188Z,2.50
2022-11-29T17:07:32.306Z,2.52
2022-11-29T17:10:00.194Z,2.56
2022-11-29T17:12:27.612Z,2.54
2022-11-29T17:14:55.042Z,2.57
2022-11-29T17:17:22.510Z,2.57
2022-11-29T17:19:49.990Z,2.60
2022-11-29T17:22:17.482Z,2.60
2022-11-29T17:24:48.238Z,2.61
2022-11-29T17:27:16.230Z,2.58
2022-11-29T17:29:43.599Z,2.60
2022-11-29T17:32:11.211Z,2.59
2022-11-29T17:34:38.825Z,2.59
2022-11-29T17:37:06.286Z,2.64
2022-11-29T17:39:33.851Z,2.68
2022-11-29T17:42:01.282Z,2.65
2022-11-29T17:44:28.808Z,2.69
2022-11-29T17:46:56.255Z,2.64
2022-11-29T17:49:23.769Z,2.70
2022-11-29T17:51:52.970Z,2.68
2022-11-29T17:54:22.308Z,2.71
2022-11-29T17:56:50.765Z,2.69
2022-11-29T17:59:18.306Z,2.63
2022-11-29T18:01:48.847Z,2.70
2022-11-29T18:04:16.680Z,2.62
2022-11-29T18:06:49.811Z,2.65
2022-11-29T18:09:18.713Z,2.62
2022-11-29T18:11:49.413Z,2.61
2022-11-29T18:14:20.643Z,2.64
2022-11-29T18:16:51.791Z,2.59
2022-11-29T18:19:21.777Z,2.58
2022-11-29T18:21:49.776Z,2.58
2022-11-29T18:24:18.092Z,2.65
2022-11-29T18:26:45.700Z,2.65
2022-11-29T18:29:13.479Z,2.60
2022-11-29T18:31:43.559Z,2.59
2022-11-29T18:34:13.207Z,2.58
2022-11-29T18:36:43.590Z,2.66
2022-11-29T18:39:16.341Z,2.63
2022-11-29T18:41:46.702Z,2.62
2022-11-29T18:44:15.748Z,2.59
2022-11-29T18:46:44.750Z,2.60
2022-11-29T18:49:15.561Z,2.56
2022-11-29T18:51:45.051Z,2.53
2022-11-29T18:54:14.660Z,2.53
2022-11-29T18:56:43.488Z,2.61
2022-11-29T18:59:19.319Z,2.57
2022-11-29T19:01:48.539Z,2.52
2022-11-29T19:04:19.133Z,2.53
2022-11-29T19:06:47.222Z,2.50
2022-11-29T19:09:21.485Z,2.48
2022-11-29T19:11:49.927Z,2.43
2022-11-29T19:14:18.491Z,2.45
2022-11-29T19:16:48.610Z,2.43
2022-11-29T19:19:18.655Z,2.54
2022-11-29T19:21:46.694Z,2.49
2022-11-29T19:24:15.847Z,2.51
2022-11-29T19:26:45.102Z,2.48
2022-11-29T19:29:13.952Z,2.42
2022-11-29T19:31:42.640Z,2.46
2022-11-29T19:34:10.710Z,2.43
2022-11-29T19:36:44.227Z,2.43
2022-11-29T19:39:14.592Z,2.43
2022-11-29T19:41:44.560Z,2.46
2022-11-29T19:44:12.470Z,2.37
2022-11-29T19:46:42.668Z,2.39
2022-11-29T19:49:10.507Z,2.39
2022-11-29T19:51:38.483Z,2.40
2022-11-29T19:54:07.839Z,2.33
2022-11-29T19:56:35.710Z,2.35
2022-11-29T19:59:03.179Z,2.27
2022-11-29T20:01:39.768Z,2.24
2022-11-29T20:04:09.760Z,2.26
2022-11-29T20:06:37.940Z,2.24
2022-11-29T20:09:06.521Z,2.22
2022-11-29T20:11:34.336Z,2.23
2022-11-29T20:14:03.690Z,2.22
2022-11-29T20:16:32.100Z,2.26
2022-11-29T20:18:59.600Z,2.37
2022-11-29T20:21:30.676Z,2.30
2022-11-29T20:24:01.357Z,2.38
2022-11-29T20:26:33.277Z,2.36
2022-11-29T20:29:02.293Z,2.31
2022-11-29T20:31:30.343Z,2.39
2022-11-29T20:33:58.162Z,2.27
2022-11-29T20:37:06.854Z,2.30
2022-11-29T20:39:40.348Z,2.26
2022-11-29T20:42:29.625Z,2.33
2022-11-29T20:45:02.810Z,2.30
2022-11-29T20:47:45.085Z,2.27
2022-11-29T20:50:24.338Z,2.28
2022-11-29T20:53:25.199Z,2.38
2022-11-29T20:55:52.698Z,2.35
2022-11-29T20:58:20.199Z,2.39
2022-11-29T21:00:47.736Z,2.40
2022-11-29T21:03:19.280Z,2.38
2022-11-29T21:05:47.602Z,2.38
2022-11-29T21:08:16.539Z,2.38
2022-11-29T21:10:44.279Z,2.37
2022-11-29T21:13:13.159Z,2.45
2022-11-29T21:15:41.042Z,2.41
2022-11-29T21:18:20.458Z,2.41
2022-11-29T21:21:02.017Z,2.39
2022-11-29T21:23:38.400Z,2.37
2022-11-29T21:26:16.633Z,2.28
2022-11-29T21:28:57.748Z,2.29
2022-11-29T21:31:25.653Z,2.21
2022-11-29T21:33:54.155Z,2.16
2022-11-29T21:36:21.749Z,2.16
2022-11-29T21:38:54.019Z,2.18
2022-11-29T21:41:22.904Z,2.12
2022-11-29T21:44:06.179Z,2.14
2022-11-29T21:46:35.661Z,2.12
2022-11-29T21:49:04.085Z,2.16
2022-11-29T21:51:31.718Z,2.15
2022-11-29T21:53:59.190Z,2.15
2022-11-29T21:56:26.777Z,2.13
2022-11-29T21:58:54.203Z,2.09
2022-11-29T22:01:21.809Z,2.13
2022-11-29T22:03:53.858Z,2.10
2022-11-29T22:06:24.430Z,2.12
2022-11-29T22:08:52.128Z,2.14
2022-11-29T22:11:31.096Z,2.16
2022-11-29T22:14:19.008Z,2.19
2022-11-29T22:16:58.665Z,2.13
2022-11-29T22:19:34.457Z,2.09
2022-11-29T22:22:07.028Z,2.10
2022-11-29T22:24:36.270Z,2.07
2022-11-29T22:27:04.229Z,2.08
2022-11-29T22:29:31.742Z,2.03
2022-11-29T22:31:59.678Z,2.03
2022-11-29T22:34:28.213Z,2.03
2022-11-29T22:36:56.479Z,2.01
2022-11-29T22:39:24.276Z,2.00
2022-11-29T22:41:54.544Z,2.01
2022-11-29T22:44:25.908Z,2.04
2022-11-29T22:46:53.587Z,2.05
2022-11-29T22:49:21.301Z,2.06
2022-11-29T22:51:48.999Z,1.99
2022-11-29T22:54:17.472Z,1.98
2022-11-29T22:56:45.917Z,1.95
2022-11-29T22:59:13.893Z,1.98
2022-11-29T23:01:42.345Z,2.05
2022-11-29T23:04:12.264Z,2.05
2022-11-29T23:06:45.590Z,2.03
2022-11-29T23:09:18.997Z,2.06
2022-11-29T23:11:51.138Z,2.10
2022-11-29T23:14:19.240Z,2.08
2022-11-29T23:16:46.869Z,2.06
2022-11-29T23:19:16.785Z,2.05
2022-11-29T23:21:45.935Z,2.04
2022-11-29T23:24:14.605Z,2.02
2022-11-29T23:26:46.024Z,1.97
2022-11-29T23:29:16.618Z,1.91
2022-11-29T23:31:44.692Z,1.93
2022-11-29T23:34:12.795Z,2.00
2022-11-29T23:36:40.329Z,2.03
2022-11-29T23:39:08.129Z,1.98
2022-11-29T23:41:36.872Z,2.04
2022-11-29T23:44:05.869Z,2.03
2022-11-29T23:46:35.156Z,2.06
2022-11-29T23:49:02.919Z,2.04
2022-11-29T23:51:30.527Z,1.99
2022-11-29T23:53:57.997Z,1.98
2022-11-29T23:56:25.726Z,2.00
2022-11-29T23:58:53.128Z,2.06
